createdAt,value
2022-08-09T00:00:04.247Z,71.00
2022-08-09T00:02:32.266Z,86.59
2022-08-09T00:05:00.887Z,78.43
2022-08-09T00:07:45.822Z,81.90
2022-08-09T00:10:17.857Z,86.85
2022-08-09T00:12:45.656Z,86.56
2022-08-09T00:15:13.853Z,88.72
2022-08-09T00:18:05.258Z,84.50
2022-08-09T00:20:28.152Z,78.76
2022-08-09T00:22:58.228Z,88.65
2022-08-09T00:25:44.797Z,88.07
2022-08-09T00:28:18.547Z,88.71
2022-08-09T00:30:45.541Z,92.25
2022-08-09T00:33:12.406Z,95.72
2022-08-09T00:35:43.472Z,85.05
2022-08-09T00:38:12.655Z,75.45
2022-08-09T00:40:40.015Z,89.66
2022-08-09T00:44:19.305Z,90.58
2022-08-09T00:46:07.072Z,88.97
2022-08-09T00:48:34.399Z,89.95
2022-08-09T00:51:10.374Z,88.67
2022-08-09T00:53:39.889Z,84.68
2022-08-09T00:56:09.810Z,86.59
2022-08-09T00:58:36.978Z,85.37
2022-08-09T01:01:15.855Z,83.69
2022-08-09T01:03:48.996Z,82.54
2022-08-09T01:06:53.535Z,75.09
2022-08-09T01:09:20.251Z,87.51
2022-08-09T01:11:53.444Z,77.30
2022-08-09T01:14:42.044Z,92.75
2022-08-09T01:17:11.575Z,81.61
2022-08-09T01:20:02.415Z,91.90
2022-08-09T01:22:33.854Z,84.79
2022-08-09T01:25:17.636Z,82.38
2022-08-09T01:27:48.220Z,79.17
2022-08-09T01:30:28.817Z,87.05
2022-08-09T01:33:10.133Z,97.00
2022-08-09T01:35:45.509Z,84.26
2022-08-09T01:38:15.141Z,80.58
2022-08-09T01:40:44.261Z,83.84
2022-08-09T01:43:11.601Z,85.54
2022-08-09T01:45:46.419Z,82.13
2022-08-09T01:48:19.437Z,84.31
2022-08-09T01:50:55.153Z,94.91
2022-08-09T01:53:28.941Z,89.10
2022-08-09T01:55:56.942Z,97.66
2022-08-09T01:58:25.724Z,92.80
2022-08-09T02:00:56.259Z,94.79
2022-08-09T02:03:23.478Z,78.61
2022-08-09T02:06:03.304Z,90.98
2022-08-09T02:08:56.688Z,92.04
2022-08-09T02:11:22.088Z,88.15
2022-08-09T02:14:06.131Z,84.09
2022-08-09T02:16:59.979Z,96.73
2022-08-09T02:19:22.742Z,82.71
2022-08-09T02:21:55.195Z,86.72
2022-08-09T02:24:26.283Z,75.71
2022-08-09T02:26:58.615Z,82.67
2022-08-09T02:29:27.558Z,78.22
2022-08-09T02:31:59.462Z,90.17
2022-08-09T02:34:40.606Z,96.94
2022-08-09T02:37:12.254Z,97.14
2022-08-09T02:39:43.856Z,100.00
2022-08-09T02:42:19.990Z,96.97
2022-08-09T02:44:56.896Z,99.58
2022-08-09T02:47:23.860Z,93.47
2022-08-09T02:50:01.338Z,100.00
2022-08-09T02:52:34.442Z,89.85
2022-08-09T02:55:03.180Z,93.01
2022-08-09T02:58:00.385Z,91.55
2022-08-09T03:00:30.226Z,100.00
2022-08-09T03:03:00.336Z,83.79
2022-08-09T03:05:28.060Z,96.83
2022-08-09T03:07:55.703Z,100.00
2022-08-09T03:10:22.942Z,100.00
2022-08-09T03:12:52.161Z,96.30
2022-08-09T03:15:20.790Z,91.10
2022-08-09T03:17:54.005Z,98.27
2022-08-09T03:20:29.421Z,98.19
2022-08-09T03:22:58.195Z,92.47
2022-08-09T03:25:59.237Z,94.76
2022-08-09T03:28:17.492Z,81.00
2022-08-09T03:30:45.294Z,81.24
2022-08-09T03:33:19.059Z,90.28
2022-08-09T03:36:12.370Z,81.55
2022-08-09T03:38:34.588Z,89.41
2022-08-09T03:41:01.129Z,85.08
2022-08-09T03:43:31.952Z,95.34
2022-08-09T03:46:04.787Z,82.83
2022-08-09T03:48:58.286Z,92.52
2022-08-09T03:51:57.123Z,91.34
2022-08-09T03:54:14.145Z,100.00
2022-08-09T03:56:41.704Z,100.00
2022-08-09T03:59:17.078Z,97.04
2022-08-09T04:01:49.222Z,99.99
2022-08-09T04:04:16.618Z,91.42
2022-08-09T04:06:44.000Z,92.11
2022-08-09T04:09:47.846Z,100.00
2022-08-09T04:12:11.974Z,100.00
2022-08-09T04:15:00.496Z,81.87
2022-08-09T04:17:29.424Z,87.66
2022-08-09T04:19:57.399Z,96.59
2022-08-09T04:22:23.898Z,100.00
2022-08-09T04:24:54.606Z,100.00
2022-08-09T04:27:22.232Z,96.17
2022-08-09T04:29:50.189Z,100.00
2022-08-09T04:32:17.031Z,97.38
2022-08-09T04:34:54.023Z,100.00
2022-08-09T04:37:21.138Z,100.00
2022-08-09T04:39:49.414Z,89.21
2022-08-09T04:42:16.123Z,92.75
2022-08-09T04:44:49.048Z,86.37
2022-08-09T04:47:16.079Z,94.34
2022-08-09T04:49:54.444Z,93.56
2022-08-09T04:52:27.488Z,90.57
2022-08-09T04:54:55.073Z,99.15
2022-08-09T04:57:24.524Z,90.40
2022-08-09T04:59:55.931Z,96.19
2022-08-09T05:02:23.855Z,100.00
2022-08-09T05:04:55.589Z,100.00
2022-08-09T05:07:22.881Z,100.00
2022-08-09T05:09:50.364Z,96.70
2022-08-09T05:12:17.444Z,99.31
2022-08-09T05:14:44.275Z,97.09
2022-08-09T05:17:15.197Z,100.00
2022-08-09T05:19:58.371Z,97.20
2022-08-09T05:22:33.294Z,100.00
2022-08-09T05:25:06.723Z,100.00
2022-08-09T05:27:38.891Z,100.00
2022-08-09T05:30:12.431Z,100.00
2022-08-09T05:32:41.966Z,100.00
2022-08-09T05:35:10.493Z,100.00
2022-08-09T05:37:46.443Z,96.51
2022-08-09T05:40:15.111Z,98.58
2022-08-09T05:42:42.889Z,86.41
2022-08-09T05:45:14.381Z,83.41
2022-08-09T05:47:52.225Z,92.46
2022-08-09T05:50:36.182Z,85.67
2022-08-09T05:53:21.871Z,80.89
2022-08-09T05:55:58.408Z,81.78
2022-08-09T05:58:24.961Z,78.19
2022-08-09T06:00:53.361Z,70.63
2022-08-09T06:03:20.571Z,73.22
2022-08-09T06:05:57.867Z,72.41
2022-08-09T06:08:31.735Z,71.24
2022-08-09T06:11:01.751Z,70.28
2022-08-09T06:13:43.335Z,67.90
2022-08-09T06:16:11.091Z,71.39
2022-08-09T06:18:38.912Z,72.22
2022-08-09T06:21:07.070Z,68.29
2022-08-09T06:23:58.983Z,65.52
2022-08-09T06:26:22.394Z,69.08
2022-08-09T06:29:00.963Z,67.35
2022-08-09T06:31:40.350Z,67.29
2022-08-09T06:34:18.012Z,64.58
2022-08-09T06:36:44.932Z,64.86
2022-08-09T06:39:12.737Z,64.37
2022-08-09T06:42:08.450Z,65.63
2022-08-09T06:44:26.669Z,72.01
2022-08-09T06:46:55.420Z,66.31
2022-08-09T06:49:29.342Z,64.46
2022-08-09T06:52:09.676Z,67.03
2022-08-09T06:54:36.376Z,66.29
2022-08-09T06:57:05.482Z,66.44
2022-08-09T07:00:49.913Z,72.01
2022-08-09T07:02:21.640Z,64.82
2022-08-09T07:04:48.336Z,72.55
2022-08-09T07:07:59.014Z,57.69
2022-08-09T07:10:14.266Z,65.24
2022-08-09T07:12:57.760Z,63.21
2022-08-09T07:15:53.968Z,59.70
2022-08-09T07:18:11.692Z,59.00
2022-08-09T07:20:40.908Z,65.08
2022-08-09T07:23:18.101Z,63.22
2022-08-09T07:25:46.310Z,69.47
2022-08-09T07:28:19.252Z,57.32
2022-08-09T07:30:54.135Z,66.47
2022-08-09T07:33:22.041Z,69.66
2022-08-09T07:35:53.310Z,65.87
2022-08-09T07:38:21.342Z,60.72
2022-08-09T07:41:08.095Z,58.10
2022-08-09T07:43:41.335Z,58.56
2022-08-09T07:46:17.208Z,58.04
2022-08-09T07:52:05.941Z,64.89
2022-08-09T07:54:06.741Z,63.70
2022-08-09T07:56:37.044Z,59.40
2022-08-09T07:59:12.406Z,57.21
2022-08-09T08:01:40.734Z,56.58
2022-08-09T08:04:10.503Z,55.13
2022-08-09T08:06:45.496Z,56.07
2022-08-09T08:09:38.442Z,57.00
2022-08-09T08:12:10.886Z,57.33
2022-08-09T08:14:52.254Z,57.61
2022-08-09T08:17:35.200Z,56.54
2022-08-09T08:20:12.558Z,57.30
2022-08-09T08:22:40.540Z,56.82
2022-08-09T08:25:09.387Z,57.78
2022-08-09T08:27:41.187Z,57.84
2022-08-09T08:30:11.165Z,57.87
2022-08-09T08:32:52.665Z,57.89
2022-08-09T08:35:22.187Z,56.70
2022-08-09T08:37:59.393Z,57.78
2022-08-09T08:40:29.649Z,57.58
2022-08-09T08:42:58.747Z,57.50
2022-08-09T08:45:44.639Z,57.64
2022-08-09T08:48:20.042Z,57.38
2022-08-09T08:50:49.332Z,56.50
2022-08-09T08:53:22.056Z,55.46
2022-08-09T08:55:48.853Z,55.65
2022-08-09T08:58:19.775Z,55.79
2022-08-09T09:00:56.788Z,56.22
2022-08-09T09:03:33.330Z,55.81
2022-08-09T09:06:05.716Z,56.40
2022-08-09T09:08:40.328Z,57.36
2022-08-09T09:11:09.159Z,57.11
2022-08-09T09:13:56.261Z,57.01
2022-08-09T09:16:34.487Z,55.22
2022-08-09T09:21:58.475Z,55.92
2022-08-09T09:24:27.856Z,56.12
2022-08-09T09:26:55.844Z,55.61
2022-08-09T09:30:05.367Z,55.47
2022-08-09T09:32:32.504Z,55.30
2022-08-09T09:35:02.139Z,54.80
2022-08-09T09:37:31.937Z,55.61
2022-08-09T09:39:59.600Z,54.25
2022-08-09T09:42:30.937Z,53.48
2022-08-09T09:45:03.145Z,53.27
2022-08-09T09:47:30.298Z,52.78
2022-08-09T09:50:15.206Z,53.00
2022-08-09T09:52:54.033Z,53.30
2022-08-09T09:55:27.913Z,53.57
2022-08-09T09:58:18.800Z,54.06
2022-08-09T10:00:55.148Z,52.12
2022-08-09T10:03:42.735Z,52.90
2022-08-09T10:06:11.677Z,51.94
2022-08-09T10:08:42.541Z,52.22
2022-08-09T10:12:00.684Z,52.54
2022-08-09T10:14:47.876Z,51.78
2022-08-09T10:17:39.671Z,49.92
2022-08-09T10:20:03.744Z,50.78
2022-08-09T10:22:34.969Z,50.50
2022-08-09T10:25:11.344Z,49.88
2022-08-09T10:27:55.880Z,51.78
2022-08-09T10:32:00.071Z,51.15
2022-08-09T10:34:04.268Z,51.19
2022-08-09T10:36:00.712Z,50.10
2022-08-09T10:38:54.461Z,49.91
2022-08-09T10:41:16.474Z,51.77
2022-08-09T10:44:01.239Z,49.53
2022-08-09T10:46:28.677Z,51.80
2022-08-09T10:49:01.213Z,50.17
2022-08-09T10:51:46.718Z,49.31
2022-08-09T10:54:23.078Z,48.77
2022-08-09T10:57:05.427Z,50.99
2022-08-09T10:59:53.728Z,49.63
2022-08-09T11:03:27.115Z,48.02
2022-08-09T11:05:25.105Z,48.21
2022-08-09T11:07:59.006Z,50.76
2022-08-09T11:10:41.292Z,49.38
2022-08-09T11:13:49.180Z,47.88
2022-08-09T11:16:33.823Z,51.37
2022-08-09T11:19:02.945Z,48.71
2022-08-09T11:21:57.476Z,47.93
2022-08-09T11:24:56.185Z,48.90
2022-08-09T11:28:08.375Z,46.81
2022-08-09T11:30:33.818Z,46.08
2022-08-09T11:33:01.439Z,49.56
2022-08-09T11:35:50.403Z,46.91
2022-08-09T11:38:22.302Z,47.77
2022-08-09T11:40:56.122Z,46.12
2022-08-09T11:43:25.551Z,46.75
2022-08-09T11:45:54.987Z,47.77
2022-08-09T11:48:26.684Z,47.47
2022-08-09T11:53:02.535Z,45.27
2022-08-09T11:54:13.719Z,45.85
2022-08-09T11:56:47.497Z,46.97
2022-08-09T11:59:24.742Z,46.38
2022-08-09T12:02:17.753Z,45.63
2022-08-09T12:04:44.127Z,48.54
2022-08-09T12:07:14.462Z,44.44
2022-08-09T12:09:50.370Z,46.16
2022-08-09T12:12:20.518Z,44.26
2022-08-09T12:15:07.590Z,44.82
2022-08-09T12:17:42.188Z,47.16
2022-08-09T12:20:21.710Z,43.78
2022-08-09T12:22:50.367Z,44.96
2022-08-09T12:25:18.161Z,45.74
2022-08-09T12:29:12.229Z,44.58
2022-08-09T12:30:58.655Z,44.18
2022-08-09T12:33:35.367Z,45.31
2022-08-09T12:36:15.519Z,45.07
2022-08-09T12:38:55.006Z,43.89
2022-08-09T12:41:25.408Z,44.61
2022-08-09T12:44:06.422Z,47.40
2022-08-09T12:46:34.573Z,43.43
2022-08-09T12:49:07.596Z,43.03
2022-08-09T12:52:00.029Z,48.12
2022-08-09T12:54:22.013Z,44.80
2022-08-09T12:56:54.012Z,46.56
2022-08-09T12:59:22.894Z,45.00
2022-08-09T13:01:58.502Z,46.92
2022-08-09T13:04:36.608Z,41.94
2022-08-09T13:07:19.802Z,45.70
2022-08-09T13:09:56.018Z,42.96
2022-08-09T13:12:28.141Z,45.37
2022-08-09T13:15:03.235Z,43.15
2022-08-09T13:18:03.671Z,45.33
2022-08-09T13:20:23.448Z,44.59
2022-08-09T13:24:16.461Z,43.45
2022-08-09T13:26:05.377Z,42.58
2022-08-09T13:28:34.092Z,45.33
2022-08-09T13:32:14.449Z,49.02
2022-08-09T13:34:39.195Z,43.41
2022-08-09T13:37:12.411Z,41.10
2022-08-09T13:41:55.966Z,41.16
2022-08-09T13:42:46.054Z,44.63
2022-08-09T13:45:13.284Z,42.50
2022-08-09T13:47:44.304Z,42.86
2022-08-09T13:50:30.506Z,43.81
2022-08-09T13:52:57.982Z,43.89
2022-08-09T13:55:24.643Z,42.18
2022-08-09T13:57:58.309Z,42.39
2022-08-09T14:00:27.356Z,41.47
2022-08-09T14:03:05.040Z,41.80
2022-08-09T14:05:56.770Z,42.13
2022-08-09T14:08:28.544Z,44.85
2022-08-09T14:10:56.442Z,44.55
2022-08-09T14:14:14.746Z,42.45
2022-08-09T14:16:14.199Z,45.09
2022-08-09T14:18:45.898Z,43.86
2022-08-09T14:21:20.541Z,43.06
2022-08-09T14:23:53.855Z,41.08
2022-08-09T14:26:25.545Z,40.77
2022-08-09T14:28:57.481Z,41.03
2022-08-09T14:31:49.877Z,44.10
2022-08-09T14:34:10.950Z,41.43
2022-08-09T14:36:39.800Z,40.29
2022-08-09T14:39:09.692Z,41.32
2022-08-09T14:41:41.657Z,45.21
2022-08-09T14:44:11.260Z,39.94
2022-08-09T14:47:00.750Z,40.30
2022-08-09T14:49:26.873Z,40.48
2022-08-09T14:51:59.034Z,42.39
2022-08-09T14:54:28.303Z,41.42
2022-08-09T14:56:57.726Z,43.34
2022-08-09T14:59:25.303Z,43.30
2022-08-09T15:01:53.959Z,40.07
2022-08-09T15:04:20.625Z,42.74
2022-08-09T15:06:51.815Z,40.70
2022-08-09T15:10:03.810Z,43.88
2022-08-09T15:12:07.736Z,40.82
2022-08-09T15:14:35.145Z,41.10
2022-08-09T15:17:07.769Z,41.38
2022-08-09T15:19:36.612Z,42.53
2022-08-09T15:22:03.754Z,40.93
2022-08-09T15:24:30.571Z,41.60
2022-08-09T15:26:57.808Z,41.18
2022-08-09T15:30:56.022Z,42.50
2022-08-09T15:32:29.477Z,40.58
2022-08-09T15:35:00.266Z,42.13
2022-08-09T15:37:56.931Z,43.51
2022-08-09T15:40:31.917Z,42.29
2022-08-09T15:43:00.393Z,41.34
2022-08-09T15:45:29.445Z,41.89
2022-08-09T15:48:05.265Z,40.45
2022-08-09T15:50:34.471Z,41.31
2022-08-09T15:53:06.990Z,40.25
2022-08-09T15:56:11.086Z,42.69
2022-08-09T15:58:31.627Z,41.47
2022-08-09T16:00:59.453Z,42.79
2022-08-09T16:03:29.560Z,42.29
2022-08-09T16:06:06.069Z,41.93
2022-08-09T16:08:33.312Z,42.55
2022-08-09T16:11:01.430Z,42.15
2022-08-09T16:14:02.960Z,42.87
2022-08-09T16:16:18.359Z,43.58
2022-08-09T16:18:45.716Z,42.83
2022-08-09T16:21:17.033Z,42.80
2022-08-09T16:23:54.843Z,42.67
2022-08-09T16:26:35.602Z,42.70
2022-08-09T16:29:13.384Z,42.76
2022-08-09T16:32:19.086Z,42.83
2022-08-09T16:34:29.039Z,43.09
2022-08-09T16:36:55.699Z,42.64
2022-08-09T16:39:22.925Z,42.71
2022-08-09T16:42:04.009Z,42.93
2022-08-09T16:44:31.923Z,44.34
2022-08-09T16:47:04.178Z,44.36
2022-08-09T16:50:31.170Z,43.77
2022-08-09T16:52:31.542Z,42.96
2022-08-09T16:54:58.256Z,42.92
2022-08-09T16:57:24.755Z,43.31
2022-08-09T16:59:57.568Z,43.91
2022-08-09T17:02:25.599Z,44.21
2022-08-09T17:04:52.668Z,43.52
2022-08-09T17:08:45.169Z,44.54
2022-08-09T17:10:06.745Z,44.00
2022-08-09T17:12:35.860Z,44.02
2022-08-09T17:15:31.315Z,43.95
2022-08-09T17:17:50.636Z,44.12
2022-08-09T17:20:33.086Z,44.02
2022-08-09T17:23:04.186Z,43.71
2022-08-09T17:25:31.657Z,44.44
2022-08-09T17:28:04.307Z,44.95
2022-08-09T17:30:31.696Z,44.58
2022-08-09T17:33:04.712Z,44.89
2022-08-09T17:35:33.383Z,44.46
2022-08-09T17:38:14.192Z,45.11
2022-08-09T17:40:47.481Z,44.52
2022-08-09T17:43:34.223Z,44.93
2022-08-09T17:46:06.931Z,45.36
2022-08-09T17:48:39.712Z,45.63
2022-08-09T17:51:18.527Z,45.34
2022-08-09T17:53:52.245Z,45.40
2022-08-09T17:56:27.703Z,45.63
2022-08-09T17:58:56.096Z,45.85
2022-08-09T18:01:23.527Z,46.00
2022-08-09T18:03:51.435Z,46.16
2022-08-09T18:06:31.410Z,46.25
2022-08-09T18:08:59.341Z,46.51
2022-08-09T18:11:25.829Z,46.71
2022-08-09T18:13:57.658Z,46.62
2022-08-09T18:16:30.666Z,46.77
2022-08-09T18:19:03.524Z,47.09
2022-08-09T18:21:31.825Z,47.33
2022-08-09T18:24:12.158Z,47.46
2022-08-09T18:26:46.649Z,47.46
2022-08-09T18:30:40.267Z,48.14
2022-08-09T18:32:04.911Z,48.22
2022-08-09T18:34:35.182Z,48.24
2022-08-09T18:37:10.456Z,48.27
2022-08-09T18:39:52.536Z,48.50
2022-08-09T18:42:19.227Z,48.62
2022-08-09T18:44:47.884Z,49.06
2022-08-09T18:47:19.538Z,49.09
2022-08-09T18:49:48.551Z,49.24
2022-08-09T18:52:24.786Z,49.42
2022-08-09T18:54:53.261Z,49.85
2022-08-09T18:57:22.409Z,49.50
2022-08-09T18:59:57.628Z,49.78
2022-08-09T19:02:31.623Z,50.03
2022-08-09T19:05:04.102Z,50.18
2022-08-09T19:08:04.636Z,50.10
2022-08-09T19:10:37.228Z,50.04
2022-08-09T19:13:21.952Z,50.12
2022-08-09T19:17:31.259Z,50.58
2022-08-09T19:20:06.615Z,48.84
2022-08-09T19:35:09.952Z,49.55
2022-08-09T19:38:19.572Z,50.05
2022-08-09T19:40:46.530Z,50.08
2022-08-09T19:43:57.754Z,50.58
2022-08-09T19:46:04.100Z,50.03
2022-08-09T19:49:00.842Z,52.16
2022-08-09T19:51:17.656Z,50.52
2022-08-09T19:53:45.253Z,50.54
2022-08-09T19:56:15.384Z,49.99
2022-08-09T19:58:42.331Z,50.49
2022-08-09T20:01:28.995Z,50.37
2022-08-09T20:04:19.709Z,50.32
2022-08-09T20:06:53.140Z,52.03
2022-08-09T20:09:44.718Z,51.41
2022-08-09T20:12:07.119Z,55.22
2022-08-09T20:14:53.256Z,51.15
2022-08-09T20:17:20.817Z,52.13
2022-08-09T20:19:54.353Z,55.71
2022-08-09T20:22:21.584Z,51.89
2022-08-09T20:24:58.627Z,51.88
2022-08-09T20:27:29.374Z,54.02
2022-08-09T20:29:57.914Z,54.93
2022-08-09T20:32:29.949Z,52.62
2022-08-09T20:35:01.787Z,56.45
2022-08-09T20:38:18.869Z,53.09
2022-08-09T20:40:24.784Z,59.18
2022-08-09T20:43:00.063Z,54.24
2022-08-09T20:46:02.092Z,53.95
2022-08-09T20:48:30.590Z,53.99
2022-08-09T20:50:58.532Z,54.71
2022-08-09T20:53:37.477Z,53.88
2022-08-09T20:56:20.443Z,55.43
2022-08-09T20:58:57.790Z,56.42
2022-08-09T21:01:34.794Z,53.48
2022-08-09T21:05:55.291Z,56.79
2022-08-09T21:07:11.877Z,60.17
2022-08-09T21:09:55.527Z,56.17
2022-08-09T21:15:13.090Z,56.92
2022-08-09T21:18:11.833Z,56.19
2022-08-09T21:20:29.978Z,56.36
2022-08-09T21:22:57.517Z,55.25
2022-08-09T21:25:44.480Z,60.06
2022-08-09T21:28:34.811Z,57.16
2022-08-09T21:31:17.322Z,63.48
2022-08-09T21:33:50.831Z,59.73
2022-08-09T21:36:28.802Z,61.69
2022-08-09T21:38:58.087Z,55.84
2022-08-09T21:42:04.928Z,64.90
2022-08-09T21:44:15.432Z,57.64
2022-08-09T21:47:01.678Z,57.63
2022-08-09T21:49:28.409Z,58.72
2022-08-09T21:51:55.142Z,56.89
2022-08-09T21:54:21.662Z,59.77
2022-08-09T21:56:54.871Z,63.31
2022-08-09T21:59:23.388Z,60.19
2022-08-09T22:01:58.794Z,59.26
2022-08-09T22:04:55.757Z,60.14
2022-08-09T22:07:14.238Z,59.12
2022-08-09T22:09:49.846Z,63.00
2022-08-09T22:12:18.961Z,60.59
2022-08-09T22:14:57.956Z,56.73
2022-08-09T22:17:24.611Z,59.81
2022-08-09T22:19:58.657Z,62.56
2022-08-09T22:22:27.622Z,65.22
2022-08-09T22:26:06.158Z,60.16
2022-08-09T22:27:40.957Z,63.22
2022-08-09T22:30:10.996Z,60.49
2022-08-09T22:32:38.436Z,61.69
2022-08-09T22:35:59.963Z,61.18
2022-08-09T22:38:06.821Z,64.40
2022-08-09T22:40:35.137Z,69.72
2022-08-09T22:43:16.231Z,62.35
2022-08-09T22:48:16.877Z,66.50
2022-08-09T22:48:36.438Z,66.11
2022-08-09T22:51:10.853Z,59.05
2022-08-09T22:54:02.047Z,58.18
2022-08-09T22:56:34.114Z,61.55
2022-08-09T22:59:56.250Z,59.83
2022-08-09T23:01:52.112Z,60.91
2022-08-09T23:04:20.079Z,60.21
2022-08-09T23:07:10.889Z,64.94
2022-08-09T23:09:38.703Z,63.87
2022-08-09T23:12:05.610Z,62.63
2022-08-09T23:14:41.383Z,60.60
2022-08-09T23:17:10.469Z,63.07
2022-08-09T23:20:07.530Z,64.45
2022-08-09T23:22:24.122Z,73.19
2022-08-09T23:24:50.739Z,62.15
2022-08-09T23:27:17.363Z,61.14
2022-08-09T23:29:44.036Z,60.27
2022-08-09T23:32:10.859Z,60.33
2022-08-09T23:34:37.670Z,60.51
2022-08-09T23:37:04.849Z,63.26
2022-08-09T23:39:32.108Z,62.65
2022-08-09T23:41:58.998Z,63.71
2022-08-09T23:44:26.551Z,63.07
2022-08-09T23:46:57.689Z,64.58
2022-08-09T23:49:25.547Z,60.92
2022-08-09T23:51:53.459Z,63.94
2022-08-09T23:54:26.485Z,63.64
2022-08-09T23:56:56.168Z,67.12
2022-08-09T23:59:24.803Z,62.45
